Ben-Gurion International Airport, Israel

2:08 AM IST on February 22, 2017 (GMT +0200)
Neve oz | | Change Station

Elev 190 ft 32.08 °N, 34.87 °E | Updated 10 seconds ago

Clear
Clear
50.0 °F
Feels Like 50.0 °F
N
0.0
Wind Variable Wind from WSW
Gusts 0.0 mph

Today
High -- | Low -- °F
--% Chance of Precip.
Yesterday
High -- | Low -- °F
Precip. -- in
Pressure 30.04 in
Visibility -9999.0 miles
Clouds
Dew Point 45 °F
Humidity 83%
Rainfall 0.00 in
Snow Depth Not available.
6:15 AM 5:32 PM
Waning Crescent, 21% visible
METAR LLBG 212350Z 08004KT CAVOK 08/06 Q1017 NOSIG
Pressure 30.04 in
Visibility -9999.0 miles
Clouds
Dew Point 45 °F
Humidity 83%
Rainfall 0.00 in
Snow Depth Not available.
6:15 AM 5:32 PM
Waning Crescent, 21% visible
METAR LLBG 212350Z 08004KT CAVOK 08/06 Q1017 NOSIG

Get Your Daily Forecast Email!

Thanks for signing up!

Be on the lookout for a verification email in your inbox.

You'll start receiving the daily forecast at 8 AM.

×

10-Day Weather Forecast

No radar image for this location.
×

Almanac

Astronomy

Feb. 22, 2017 Rise Set
Actual Time
Civil Twilight
Nautical Twilight
Astronomical Twilight
Moon
Length of Visible Light
Length of Day
Tomorrow will be .
, % of the Moon is Illuminated

Today's Extremes

Country Highs Country Lows

Community

WunderPhotos

Upload Photos

1,962,540 photos uploaded!

WunderBlog® & News

Nearby

Air Quality

  Air Quality AQ Index Pollutant
Not available.

Snow Depth

Station Depth Elevation

Earthquake Activity

City Distance Mag. Time & Date
Minimum magnitude displayed is 2.5.

Coastal Water Temperatures

Place Temperature

Stations

Nearby Weather Stations

Station Location Temp. Windchill Dew Point Humidity Wind Precip. Elev Updated Type